• Join FlightAware (Why Join?)
  • Login
  • US Flag 
12:26PM EDT


 

Airport Tracker/Info


-or-


 

Live Flight TrackerFlight Track Log ✈ EJA324 ✈ 05-Jul-2013 ✈ KMMU - KCEZ

Flight Track Log - Related Links

Times and Time Zones

All times are in EDT time to prevent confusion due to time zone crossing. See the EJA324 flight status page for this flight to view local times or setup timezone preferences in your user account.

Time Position Orientation Groundspeed Altitude Reporting Facility
EDT Latitude Longitude Course Direction KTS MPH feet Rate Location/Type
03:01PM 40.7667 -74.4333 270° West 171 197 2,400  Level New York TRACON
03:02PM 40.7333 -74.3667 123° Southeast 210 242 6,100 3,300 Climbing New York TRACON
03:03PM 40.7667 -74.3167 49° Northeast 247 284 9,100 1,920 Climbing New York TRACON
03:04PM 40.8333 -74.3833 323° Northwest 299 344 10,000 1,440 Climbing New York TRACON
03:05PM 40.8667 -74.4667 298° West 293 337 12,000 2,040 Climbing New York TRACON
03:07PM 40.7667 -75.2910 270° West  Level FlightAware Approximate
03:08PM 40.9375 -74.6469 298° West 230 265 17,000  Level New York Center
03:09PM 40.9069 -74.7522 249° West 278 320 17,000  Level New York Center
03:10PM 40.8711 -74.8872 251° West 344 396 17,000 360 Level New York Center
03:11PM 40.8356 -75.0114 249° West 364 419 17,800 1,680 Climbing New York Center
03:12PM 40.8042 -75.1244 250° West 358 412 20,400 2,280 Climbing New York Center
03:13PM 40.7875 -75.2358 259° West 341 392 22,500 1,680 Climbing New York Center
03:14PM 40.7689 -75.3469 258° West 330 380 23,900 1,500 Climbing New York Center
03:15PM 40.7325 -75.4758 250° West 337 388 25,500 1,560 Climbing New York Center
03:16PM 40.6881 -75.5933 244° Southwest 349 402 27,000 1,440 Climbing New York Center
03:17PM 40.6433 -75.7161 244° Southwest 361 415 28,500 1,440 Climbing New York Center
03:18PM 40.5967 -75.8383 243° Southwest 367 422 30,000 1,440 Climbing New York Center
03:19PM 40.5503 -75.9469 241° Southwest 379 436 31,400 1,440 Climbing New York Center
03:20PM 40.5053 -76.0692 244° Southwest 379 436 32,900 1,260 Climbing New York Center
03:21PM 40.4581 -76.1911 243° Southwest 379 436 34,000 1,020 Climbing New York Center
03:22PM 40.4125 -76.3183 245° Southwest 379 436 35,000 960 Climbing New York Center
03:23PM 40.3631 -76.4397 242° Southwest 379 436 36,000 960 Climbing New York Center
03:24PM 40.3397 -76.5767 257° West 379 436 37,000 960 Climbing New York Center
03:25PM 40.3283 -76.7172 264° West 384 442 38,000 960 Climbing New York Center
03:26PM 40.3192 -76.8581 265° West 391 450 39,000 960 Climbing New York Center
03:27PM 40.3100 -76.9961 265° West 391 450 40,000 480 Climbing New York Center
03:28PM 40.3003 -77.1369 265° West 386 444 40,000  Level New York Center
03:29PM 40.2919 -77.2911 266° West 386 444 40,000  Level New York Center
03:30PM 40.2825 -77.4211 265° West 386 444 40,000  Level New York Center
03:32PM 40.2611 -77.7397 265° West 400 460 40,000  Level Cleveland Center
03:33PM 40.2519 -77.8764 265° West 413 475 40,000  Level Cleveland Center
03:34PM 40.2347 -78.0403 262° West 413 475 40,000  Level Cleveland Center
03:35PM 40.2233 -78.1875 264° West 413 475 40,000  Level Cleveland Center
03:36PM 40.2117 -78.3347 264° West 413 475 40,000  Level Cleveland Center
03:37PM 40.2000 -78.4819 264° West 413 475 40,000  Level Cleveland Center
03:38PM 40.1858 -78.6292 263° West 408 470 40,000  Level Cleveland Center
03:39PM 40.1758 -78.7761 265° West 408 470 40,000  Level Cleveland Center
03:40PM 40.1614 -78.9233 263° West 408 470 40,000  Level Cleveland Center
03:41PM 40.1489 -79.0703 264° West 408 470 40,000  Level Cleveland Center
03:42PM 40.1444 -79.2169 268° West 408 470 40,000  Level Cleveland Center
03:43PM 40.1503 -79.3664 273° West 408 470 40,000  Level Cleveland Center
03:44PM 40.1539 -79.5100 272° West 408 470 40,000  Level Cleveland Center
03:45PM 40.1572 -79.6622 272° West 408 470 40,000  Level Cleveland Center
03:46PM 40.1606 -79.8117 272° West 408 470 40,000  Level Cleveland Center
03:47PM 40.1592 -79.9556 269° West 408 470 40,000  Level Cleveland Center
03:48PM 40.1619 -80.1078 271° West 408 470 40,000  Level Cleveland Center
03:49PM 40.1647 -80.2544 271° West 408 470 40,000  Level Cleveland Center
03:50PM 40.1692 -80.3875 273° West 408 470 40,000  Level Cleveland Center
03:51PM 40.1714 -80.5342 271° West 408 470 40,000  Level Cleveland Center
03:52PM 40.1756 -80.6808 272° West 408 470 40,000  Level Cleveland Center
03:54PM 40.1742 -81.0203 270° West 411 473 40,000  Level Indianapolis Center
03:55PM 40.1722 -81.1669 269° West 402 463 40,000  Level Indianapolis Center
03:56PM 40.1700 -81.3147 269° West 403 464 40,000  Level Indianapolis Center
03:57PM 40.1692 -81.4622 270° West 400 460 40,000  Level Indianapolis Center
03:58PM 40.1664 -81.6117 269° West 406 467 40,000  Level Indianapolis Center
03:59PM 40.1719 -81.7708 273° West 404 465 40,000  Level Indianapolis Center
04:00PM 40.1769 -81.9211 273° West 408 470 40,000  Level Indianapolis Center
04:01PM 40.1806 -82.0681 272° West 404 465 40,000  Level Indianapolis Center
04:02PM 40.1864 -82.2147 273° West 401 461 40,000  Level Indianapolis Center
04:03PM 40.1897 -82.3603 272° West 399 459 40,000  Level Indianapolis Center
04:04PM 40.1944 -82.5033 273° West 393 452 40,000  Level Indianapolis Center
04:05PM 40.1981 -82.6444 272° West 387 445 40,000  Level Indianapolis Center
04:06PM 40.2019 -82.7850 272° West 385 443 40,000  Level Indianapolis Center
04:07PM 40.2047 -82.9231 272° West 380 437 40,000  Level Indianapolis Center
04:08PM 40.2086 -83.0622 272° West 381 438 40,000  Level Indianapolis Center
04:09PM 40.2119 -83.2231 272° West 380 437 40,000  Level Indianapolis Center
04:10PM 40.2153 -83.3608 272° West 378 435 40,000  Level Indianapolis Center
04:11PM 40.2175 -83.4989 271° West 379 436 40,000  Level Indianapolis Center
04:12PM 40.2206 -83.6369 272° West 380 437 40,000  Level Indianapolis Center
04:13PM 40.2225 -83.7747 271° West 378 435 40,000  Level Indianapolis Center
04:14PM 40.2244 -83.9122 271° West 378 435 40,000  Level Indianapolis Center
04:15PM 40.2267 -84.0492 271° West 377 434 40,000  Level Indianapolis Center
04:16PM 40.2292 -84.1867 271° West 376 433 40,000  Level Indianapolis Center
04:17PM 40.2300 -84.3236 271° West 375 432 40,000  Level Indianapolis Center
04:18PM 40.2319 -84.4839 271° West 376 433 40,000  Level Indianapolis Center
04:19PM 40.2322 -84.6219 270° West 377 434 40,000  Level Indianapolis Center
04:20PM 40.2333 -84.7597 271° West 377 434 40,000  Level Indianapolis Center
04:21PM 40.2353 -84.8986 271° West 378 435 40,000  Level Indianapolis Center
04:23PM 40.2356 -85.0250 270° West 379 436 40,000  Level Indianapolis Center
04:24PM 40.2358 -85.1617 270° West 380 437 40,000  Level Indianapolis Center
04:25PM 40.2369 -85.3258 271° West 380 437 40,000  Level Indianapolis Center
04:26PM 40.2383 -85.4633 271° West 380 437 40,000  Level Indianapolis Center
04:27PM 40.2439 -85.6006 273° West 381 438 40,000  Level Indianapolis Center
04:28PM 40.2486 -85.7394 273° West 384 442 40,000  Level Indianapolis Center
04:29PM 40.2542 -85.9056 273° West 386 444 40,000  Level Chicago Center
04:30PM 40.2589 -86.0453 273° West 388 447 40,000  Level Chicago Center
04:31PM 40.2642 -86.2114 272° West 385 443 40,000  Level Chicago Center
04:32PM 40.2686 -86.3528 272° West 391 450 40,000  Level Chicago Center
04:33PM 40.2711 -86.4928 271° West 390 449 40,000  Level Chicago Center
04:34PM 40.2756 -86.6331 272° West 390 449 40,000  Level Chicago Center
04:35PM 40.2781 -86.7731 271° West 392 451 40,000  Level Chicago Center
04:36PM 40.2819 -86.9419 272° West 389 448 40,000  Level Chicago Center
04:37PM 40.2853 -87.0828 272° West 391 450 40,000  Level Chicago Center
04:38PM 40.2875 -87.2228 271° West 390 449 40,000  Level Chicago Center
04:39PM 40.2903 -87.3625 272° West 387 445 40,000  Level Chicago Center
04:40PM 40.2919 -87.5108 271° West 390 449 40,000  Level Chicago Center
04:41PM 40.2933 -87.6500 271° West 387 445 40,000  Level Chicago Center
04:42PM 40.2911 -87.8189 269° West 389 448 40,000  Level Chicago Center
04:43PM 40.2897 -87.9614 269° West 393 452 40,000  Level Chicago Center
04:44PM 40.2875 -88.1069 269° West 400 460 40,000  Level Chicago Center
04:45PM 40.2858 -88.2503 269° West 397 457 40,000  Level Chicago Center
04:46PM 40.2831 -88.3956 269° West 399 459 40,000  Level Chicago Center
04:47PM 40.2808 -88.5483 269° West 405 466 40,000  Level Chicago Center
04:49PM 40.2775 -88.6958 268° West 407 468 40,000  Level Chicago Center
04:50PM 40.2744 -88.8450 269° West 410 472 40,000  Level Chicago Center
04:51PM 40.2644 -89.0253 266° West 413 475 40,000  Level Chicago Center
04:52PM 40.2539 -89.1772 265° West 418 481 40,000  Level Chicago Center
04:53PM 40.2442 -89.3297 265° West 420 483 40,000  Level Chicago Center
04:54PM 40.2350 -89.4850 266° West 425 489 40,000  Level Chicago Center
04:55PM 40.2244 -89.6406 265° West 428 493 40,000  Level Chicago Center
04:56PM 40.2142 -89.7961 265° West 425 489 40,000  Level Chicago Center
04:57PM 40.2028 -89.9542 265° West 435 501 40,000  Level Chicago Center
04:58PM 40.1936 -90.1111 266° West 434 499 40,000  Level Chicago Center
04:59PM 40.1800 -90.3006 265° West 436 502 40,000  Level Chicago Center
05:00PM 40.1692 -90.4594 265° West 439 505 40,000  Level Chicago Center
05:01PM 40.1597 -90.6078 265° West 439 505 40,000  Level Chicago Center
05:02PM 40.1456 -90.7658 263° West 441 507 40,000  Level Chicago Center
05:03PM 40.1319 -90.9558 265° West 442 509 40,000  Level Chicago Center
05:04PM 40.1208 -91.1139 265° West 441 507 40,000  Level Chicago Center
05:05PM 40.1075 -91.2719 264° West 441 507 40,000  Level Chicago Center
05:06PM 40.0947 -91.4306 264° West 443 510 40,000  Level Chicago Center
05:07PM 40.0822 -91.5897 264° West 443 510 40,000  Level Chicago Center
05:08PM 40.0669 -91.7814 264° West 445 512 40,000  Level Chicago Center
05:09PM 40.0525 -91.9403 263° West 444 511 40,000  Level Chicago Center
05:11PM 40.0342 -92.1658 264° West 447 514 40,000  Level Kansas City Center
05:12PM 40.0194 -92.3272 263° West 448 516 40,000  Level Kansas City Center
05:13PM 40.0047 -92.4903 263° West 450 518 40,000  Level Kansas City Center
05:14PM 39.9903 -92.6539 263° West 452 520 40,000  Level Kansas City Center
05:15PM 39.9750 -92.8169 263° West 453 521 40,000  Level Kansas City Center
05:16PM 39.9603 -92.9808 263° West 455 524 40,000  Level Kansas City Center
05:17PM 39.9433 -93.1769 264° West 456 525 40,000  Level Kansas City Center
05:18PM 39.9253 -93.3386 262° West 455 524 40,000  Level Kansas City Center
05:19PM 39.9092 -93.5008 263° West 454 522 40,000  Level Kansas City Center
05:20PM 39.8961 -93.6628 264° West 453 521 40,000  Level Kansas City Center
05:21PM 39.8781 -93.8219 262° West 452 520 40,000  Level Kansas City Center
05:22PM 39.8619 -93.9811 263° West 448 516 40,000  Level Kansas City Center
05:23PM 39.8422 -94.1769 263° West 450 518 40,000  Level Kansas City Center
05:24PM 39.8267 -94.3306 263° West 449 517 40,000  Level Kansas City Center
05:25PM 39.8100 -94.4850 262° West 453 521 40,000  Level Kansas City Center
05:26PM 39.7903 -94.6661 262° West 453 521 40,000  Level Kansas City Center
05:27PM 39.7742 -94.8206 262° West 452 520 40,000  Level Kansas City Center
05:28PM 39.7542 -94.9994 262° West 451 519 40,000  Level Kansas City Center
05:29PM 39.7361 -95.1539 261° West 453 521 40,000  Level Kansas City Center
05:30PM 39.7156 -95.3331 262° West 452 520 40,000  Level Kansas City Center
05:31PM 39.6981 -95.4867 262° West 451 519 40,000  Level Kansas City Center
05:32PM 39.6775 -95.6650 262° West 450 518 40,000  Level Kansas City Center
05:33PM 39.6589 -95.8172 261° West 448 516 40,000  Level Kansas City Center
05:34PM 39.6364 -95.9953 261° West 450 518 40,000  Level Kansas City Center
05:35PM 39.6183 -96.1464 261° West 446 513 40,000  Level Kansas City Center
05:36PM 39.5969 -96.3225 261° West 444 511 40,000  Level Kansas City Center
05:37PM 39.5789 -96.4725 261° West 443 510 40,000  Level Kansas City Center
05:38PM 39.5603 -96.6219 261° West 442 509 40,000  Level Kansas City Center
05:39PM 39.5389 -96.7947 261° West 437 503 40,000  Level Kansas City Center
05:40PM 39.5175 -96.9489 260° West 440 506 40,000  Level Kansas City Center
05:41PM 39.4953 -97.1175 260° West 438 504 40,000  Level Kansas City Center
05:42PM 39.4769 -97.2658 261° West 437 503 40,000  Level Kansas City Center
05:43PM 39.4525 -97.4386 260° West 437 503 40,000  Level Kansas City Center
05:45PM 39.4328 -97.5992 261° West 439 505 40,000  Level Kansas City Center
05:46PM 39.4122 -97.7542 260° West 437 503 40,000  Level Kansas City Center
05:47PM 39.3903 -97.9061 259° West 432 497 40,000  Level Kansas City Center
05:48PM 39.3706 -98.0536 260° West 433 498 40,000  Level Kansas City Center
05:49PM 39.3478 -98.2164 260° West 438 504 40,000  Level Kansas City Center
05:50PM 39.3247 -98.3733 259° West 441 507 40,000  Level Kansas City Center
05:51PM 39.3028 -98.5294 260° West 441 507 40,000  Level Kansas City Center
05:52PM 39.2803 -98.6953 260° West 433 498 40,000  Level Kansas City Center
05:53PM 39.2586 -98.8453 259° West 439 505 40,000  Level Kansas City Center
05:54PM 39.2331 -99.0183 259° West 443 510 40,000  Level Kansas City Center
05:55PM 39.2100 -99.1728 259° West 440 506 40,000  Level Kansas City Center
05:56PM 39.1864 -99.3292 259° West 444 511 40,000  Level Kansas City Center
05:57PM 39.1628 -99.4828 259° West 441 507 40,000  Level Kansas City Center
05:58PM 39.1364 -99.6525 259° West 439 505 40,000  Level Kansas City Center
05:59PM 39.1011 -99.8722 258° West 439 505 40,000  Level Denver Center
06:00PM 39.0747 -100.0478 259° West 441 507 40,000  Level Denver Center
06:01PM 39.0514 -100.1925 258° West 435 501 40,000  Level Denver Center
06:02PM 39.0272 -100.3411 258° West 440 506 40,000  Level Denver Center
06:03PM 38.9992 -100.5125 258° West 440 506 40,000  Level Denver Center
06:04PM 38.9764 -100.6575 259° West 443 510 40,000  Level Denver Center
06:06PM 38.9486 -100.8311 258° West 446 513 40,000  Level Denver Center
06:07PM 38.9236 -100.9775 258° West 441 507 40,000  Level Denver Center
06:08PM 38.8953 -101.1494 258° West 443 510 40,000  Level Denver Center
06:09PM 38.8706 -101.2967 258° West 442 509 40,000  Level Denver Center
06:10PM 38.8411 -101.4669 258° West 440 506 40,000  Level Denver Center
06:11PM 38.8161 -101.6139 258° West 443 510 40,000  Level Denver Center
06:12PM 38.7875 -101.7839 258° West 440 506 40,000  Level Denver Center
06:13PM 38.7619 -101.9303 257° West 441 507 40,000  Level Denver Center
06:14PM 38.7314 -102.1006 257° West 442 509 40,000  Level Denver Center
06:15PM 38.7053 -102.2483 257° West 445 512 40,000  Level Denver Center
06:16PM 38.6789 -102.3953 257° West 445 512 40,000  Level Denver Center
06:17PM 38.6483 -102.5681 257° West 447 514 40,000  Level Denver Center
06:18PM 38.6214 -102.7128 257° West 440 506 40,000  Level Denver Center
06:19PM 38.5908 -102.8772 257° West 437 503 40,000  Level Denver Center
06:20PM 38.5642 -103.0250 257° West 435 501 40,000  Level Denver Center
06:21PM 38.5328 -103.1925 257° West 436 502 40,000  Level Denver Center
06:22PM 38.5053 -103.3367 256° West 435 501 40,000  Level Denver Center
06:23PM 38.4756 -103.4967 257° West 434 499 40,000  Level Denver Center
06:24PM 38.4481 -103.6392 256° West 434 499 40,000  Level Denver Center
06:25PM 38.4167 -103.8025 256° West 428 493 40,000  Level Denver Center
06:26PM 38.3903 -103.9419 256° West 425 489 40,000  Level Denver Center
06:27PM 38.3628 -104.0831 256° West 429 494 40,000  Level Denver Center
06:28PM 38.3303 -104.2478 256° West 433 498 40,000  Level Denver Center
06:29PM 38.3033 -104.3881 256° West 428 493 40,000  Level Denver Center
06:30PM 38.2703 -104.5500 255° West 425 489 40,000  Level Denver Center
06:31PM 38.2428 -104.6894 256° West 426 490 40,000  Level Denver Center
06:32PM 38.2097 -104.8522 256° West 427 491 40,000  Level Denver Center
06:33PM 38.1811 -104.9911 255° West 425 489 40,000  Level Denver Center
06:34PM 38.1483 -105.1528 256° West 424 488 40,000  Level Denver Center
06:35PM 38.1197 -105.2911 255° West 424 488 40,000  Level Denver Center
06:36PM 38.0917 -105.4283 255° West 420 483 40,000  Level Denver Center
06:37PM 38.0586 -105.5872 255° West 418 481 40,000  Level Denver Center
06:38PM 38.0289 -105.7250 255° West 422 486 40,000  Level Denver Center
06:39PM 38.0044 -105.8397 255° West 423 487 40,000  Level Denver Center
06:40PM 37.9650 -106.0231 255° West 423 487 40,000  Level Denver Center
06:41PM 37.9350 -106.1608 255° West 423 487 40,000 -360 Level Denver Center
06:42PM 37.8997 -106.3217 255° West 425 489 39,300 -1,020 Descending Denver Center
06:43PM 37.8703 -106.4594 255° West 424 488 38,000 -1,440 Descending Denver Center
06:45PM 37.8372 -106.6117 255° West 427 491 36,400 -1,620 Descending Denver Center
06:46PM 37.8036 -106.7639 254° West 434 499 34,800 -1,680 Descending Denver Center
06:47PM 37.7719 -106.9053 254° West 438 504 33,100 -1,980 Descending Denver Center
06:48PM 37.7356 -107.0658 254° West 428 493 30,800 -2,100 Descending Denver Center
06:49PM 37.7058 -107.2022 255° West 422 486 28,900 -2,040 Descending Denver Center
06:50PM 37.6592 -107.3500 248° West 420 483 26,700 -2,040 Descending Denver Center
06:51PM 37.5800 -107.4450 224° Southwest 411 473 24,800 -1,920 Descending Denver Center
06:52PM 37.5269 -107.5639 241° Southwest 407 468 22,800 -2,100 Descending Denver Center
06:53PM 37.4903 -107.7039 252° West 391 450 20,600 -2,100 Descending Denver Center
06:54PM 37.4764 -107.8278 262° West 378 435 18,600 -1,800 Descending Denver Center
06:55PM 37.5128 -107.9411 292° West 334 384 17,000 -840 Descending Denver Center
06:56PM 37.5878 -108.0128 323° Northwest 349 402 17,000 -240 Level Denver Center
06:57PM 37.6325 -108.1053 301° West 346 398 16,600 -1,020 Descending Denver Center
06:58PM 37.5761 -108.2239 239° Southwest 358 412 15,000 -1,260 Descending Denver Center
06:59PM 37.5281 -108.3125 236° Southwest 338 389 14,100 -1,560 Descending Denver Center
07:00PM 37.4783 -108.4044 236° Southwest 305 351 11,900 -2,040 Descending Denver Center
07:01PM 37.4306 -108.4722 228° Southwest 287 330 10,000 -1,920 Descending Denver Center